createdAt,value
2018-07-05T01:23:11.141Z,99522.84
2018-07-05T01:26:06.938Z,99525.98
2018-07-05T01:28:59.332Z,99527.91
2018-07-05T01:31:48.334Z,99528.45
2018-07-05T01:34:37.672Z,99527.80
2018-07-05T01:37:26.376Z,99540.55
2018-07-05T01:40:14.176Z,99534.34
2018-07-05T01:43:14.916Z,99530.35
2018-07-05T01:46:05.019Z,99531.73
2018-07-05T01:48:59.979Z,99534.43
2018-07-05T01:51:50.341Z,99531.71
2018-07-05T01:54:41.313Z,99528.45
2018-07-05T01:57:32.053Z,99523.89
2018-07-05T02:00:24.974Z,99521.59
2018-07-05T02:03:15.739Z,99531.07
2018-07-05T02:06:06.284Z,99518.08
2018-07-05T02:08:57.452Z,99517.18
2018-07-05T02:11:45.857Z,99524.94
2018-07-05T02:14:37.065Z,99527.61
2018-07-05T02:17:25.007Z,99524.70
2018-07-05T02:20:13.191Z,99520.08
2018-07-05T02:23:02.510Z,99522.03
2018-07-05T02:25:50.323Z,99505.89
2018-07-05T02:28:38.797Z,99519.45
2018-07-05T02:31:27.684Z,99526.63
2018-07-05T02:34:17.008Z,99516.22
2018-07-05T02:37:07.552Z,99524.12
2018-07-05T02:39:55.942Z,99524.36
2018-07-05T02:42:45.285Z,99520.58
2018-07-05T02:45:36.418Z,99518.78
2018-07-05T02:48:25.379Z,99517.59
2018-07-05T02:51:21.207Z,99512.39
2018-07-05T02:54:10.303Z,99510.81
2018-07-05T02:57:00.293Z,99523.63
2018-07-05T02:59:50.041Z,99519.55
2018-07-05T03:02:38.595Z,99521.74
2018-07-05T03:05:31.329Z,99525.52
2018-07-05T03:08:20.787Z,99518.12
2018-07-05T03:11:10.472Z,99511.66
2018-07-05T03:14:03.705Z,99524.34
2018-07-05T03:16:52.948Z,99525.58
2018-07-05T03:19:43.139Z,99517.08
2018-07-05T03:22:31.114Z,99518.69
2018-07-05T03:25:21.436Z,99524.67
2018-07-05T03:28:10.483Z,99526.33
2018-07-05T03:30:59.436Z,99526.98
2018-07-05T03:33:47.471Z,99526.61
2018-07-05T03:36:36.408Z,99525.23
2018-07-05T03:39:25.188Z,99525.94
2018-07-05T03:42:12.883Z,99537.85
2018-07-05T03:45:13.319Z,99544.56
2018-07-05T03:48:03.385Z,99545.36
2018-07-05T03:50:51.221Z,99551.70
2018-07-05T03:53:39.211Z,99555.19
2018-07-05T03:56:26.157Z,99551.28
2018-07-05T03:59:15.428Z,99552.20
2018-07-05T04:02:05.916Z,99539.23
2018-07-05T04:04:56.362Z,99533.12
2018-07-05T04:07:49.999Z,99479.33
2018-07-05T04:10:41.711Z,99526.95
2018-07-05T04:13:32.091Z,99509.94
2018-07-05T04:16:21.920Z,99517.47
2018-07-05T04:19:10.029Z,99528.92
2018-07-05T04:21:58.841Z,99533.68
2018-07-05T04:24:47.177Z,99528.23
2018-07-05T04:27:35.572Z,99532.55
2018-07-05T04:30:25.883Z,99534.91
2018-07-05T04:33:18.725Z,99525.19
2018-07-05T04:36:07.091Z,99528.23
2018-07-05T04:39:00.550Z,99536.59
2018-07-05T04:41:53.397Z,99532.45
2018-07-05T04:44:44.998Z,99543.42
2018-07-05T04:47:37.039Z,99544.37
2018-07-05T04:50:31.835Z,99540.39
2018-07-05T04:53:21.200Z,99537.80
2018-07-05T04:56:13.373Z,99536.98
2018-07-05T04:59:06.209Z,99532.22
2018-07-05T05:01:56.996Z,99542.27
2018-07-05T05:07:47.208Z,99535.11
2018-07-05T05:10:40.823Z,99538.50
2018-07-05T05:13:41.207Z,99538.60
2018-07-05T05:16:28.458Z,99545.36
2018-07-05T05:19:17.190Z,99545.36
2018-07-05T05:22:04.374Z,99553.55
2018-07-05T05:24:51.456Z,99553.59
2018-07-05T05:27:38.648Z,99548.38
2018-07-05T05:30:27.447Z,99544.20
2018-07-05T05:33:20.054Z,99548.14
2018-07-05T05:36:07.255Z,99553.66
2018-07-05T05:38:55.057Z,99542.16
2018-07-05T05:41:42.449Z,99547.48
2018-07-05T05:44:32.081Z,99546.38
2018-07-05T05:47:21.304Z,99553.15
2018-07-05T05:53:12.350Z,99553.03
2018-07-05T05:56:16.002Z,99562.27
2018-07-05T06:02:01.172Z,99549.28
2018-07-05T06:04:49.405Z,99553.17
2018-07-05T06:10:37.815Z,99551.70
2018-07-05T06:13:29.138Z,99556.06
2018-07-05T06:19:57.489Z,99551.28
2018-07-05T06:26:50.008Z,99562.45
2018-07-05T06:33:06.674Z,99559.64
2018-07-05T06:36:07.103Z,99561.04
2018-07-05T06:42:08.659Z,99561.85
2018-07-05T06:45:05.659Z,99554.74
2018-07-05T06:51:06.846Z,99515.40
2018-07-05T07:09:52.999Z,99534.77
2018-07-05T07:15:52.474Z,99544.48
2018-07-05T07:18:50.382Z,99536.05
2018-07-05T07:24:53.844Z,99539.89
2018-07-05T07:55:16.558Z,99555.73
2018-07-05T07:57:47.885Z,99532.07
2018-07-05T08:00:18.189Z,99549.19
2018-07-05T08:02:47.963Z,99545.13
2018-07-05T08:05:17.412Z,99559.08
2018-07-05T08:07:49.945Z,99553.80
2018-07-05T08:10:19.364Z,99560.14
2018-07-05T08:12:52.352Z,99553.86
2018-07-05T08:15:23.885Z,99560.02
2018-07-05T08:17:55.314Z,99561.66
2018-07-05T08:20:27.659Z,99556.65
2018-07-05T08:22:57.335Z,99557.77
2018-07-05T08:25:28.822Z,99555.75
2018-07-05T08:28:00.550Z,99554.61
2018-07-05T08:30:32.584Z,99557.06
2018-07-05T08:33:04.502Z,99549.58
2018-07-05T08:35:34.309Z,99552.42
2018-07-05T08:38:06.044Z,99551.60
2018-07-05T08:40:35.602Z,99553.00
2018-07-05T08:43:06.763Z,99546.64
2018-07-05T08:50:19.315Z,99545.77
2018-07-05T08:52:53.507Z,99544.06
2018-07-05T08:55:28.396Z,99537.67
2018-07-05T08:58:00.214Z,99537.59
2018-07-05T09:00:34.838Z,99536.30
2018-07-05T09:03:13.044Z,99526.39
2018-07-05T09:05:42.606Z,99525.16
2018-07-05T09:08:17.500Z,99517.50
2018-07-05T09:10:58.524Z,99523.36
2018-07-05T09:13:34.376Z,99531.44
2018-07-05T09:16:07.811Z,99526.73
2018-07-05T09:18:51.198Z,99525.30
2018-07-05T09:21:22.501Z,99527.98
2018-07-05T09:23:52.425Z,99524.08
2018-07-05T09:26:25.393Z,99517.28
2018-07-05T09:29:02.437Z,99530.09
2018-07-05T09:31:34.380Z,99530.38
2018-07-05T09:34:05.660Z,99522.27
2018-07-05T09:36:41.742Z,99521.95
2018-07-05T09:39:21.866Z,99525.83
2018-07-05T09:41:53.404Z,99520.52
2018-07-05T09:44:23.690Z,99514.98
2018-07-05T09:46:54.325Z,99524.93
2018-07-05T09:49:23.878Z,99517.38
2018-07-05T09:51:55.818Z,99534.16
2018-07-05T09:57:24.663Z,99528.18
2018-07-05T09:59:54.294Z,99504.76
2018-07-05T10:02:30.197Z,99522.92
2018-07-05T10:05:00.240Z,99506.33
2018-07-05T10:07:32.507Z,99522.67
2018-07-05T10:10:05.319Z,99495.29
2018-07-05T10:12:36.321Z,99516.23
2018-07-05T10:15:08.082Z,99517.23
2018-07-05T10:17:37.511Z,99524.83
2018-07-05T10:20:09.643Z,99518.13
2018-07-05T10:22:42.889Z,99510.54
2018-07-05T10:25:13.273Z,99519.82
2018-07-05T10:27:49.204Z,99528.89
2018-07-05T10:30:31.528Z,99520.63
2018-07-05T10:33:19.526Z,99524.20
2018-07-05T10:36:00.091Z,99527.52
2018-07-05T10:38:29.582Z,99520.63
2018-07-05T10:41:17.389Z,99519.73
2018-07-05T10:44:10.577Z,99509.87
2018-07-05T10:47:00.210Z,99515.09
2018-07-05T10:49:50.817Z,99495.97
2018-07-05T10:52:39.468Z,99517.42
2018-07-05T10:55:28.436Z,99510.59
2018-07-05T10:58:17.376Z,99514.94
2018-07-05T11:01:10.738Z,99516.23
2018-07-05T11:03:58.883Z,99512.72
2018-07-05T11:06:48.418Z,99514.34
2018-07-05T11:09:37.467Z,99521.86
2018-07-05T11:12:26.997Z,99525.38
2018-07-05T11:15:17.363Z,99517.77
2018-07-05T11:18:06.764Z,99506.89
2018-07-05T11:21:05.133Z,99513.56
2018-07-05T11:24:04.999Z,99524.83
2018-07-05T11:26:55.238Z,99512.70
2018-07-05T11:29:43.458Z,99516.06
2018-07-05T11:32:32.418Z,99527.86
2018-07-05T11:35:25.232Z,99521.24
2018-07-05T11:38:13.115Z,99521.98
2018-07-05T11:41:01.526Z,99520.00
2018-07-05T11:43:49.356Z,99523.73
2018-07-05T11:46:42.109Z,99530.25
2018-07-05T11:49:38.054Z,99525.16
2018-07-05T11:52:26.523Z,99520.06
2018-07-05T11:55:15.113Z,99524.12
2018-07-05T11:58:12.733Z,99518.42
2018-07-05T12:01:03.386Z,99518.70
2018-07-05T12:03:51.454Z,99522.55
2018-07-05T12:06:40.363Z,99513.56
2018-07-05T12:09:32.875Z,99511.33
2018-07-05T12:12:26.447Z,99514.77
2018-07-05T12:18:19.179Z,99519.28
2018-07-05T12:21:09.072Z,99500.97
2018-07-05T12:24:09.255Z,99505.87
2018-07-05T12:27:03.414Z,99494.12
2018-07-05T12:29:54.931Z,99493.66
2018-07-05T12:32:46.929Z,99489.33
2018-07-05T12:35:36.099Z,99486.52
2018-07-05T12:38:26.295Z,99509.48
2018-07-05T12:41:16.281Z,99504.41
2018-07-05T12:44:06.014Z,99509.50
2018-07-05T12:46:57.378Z,99514.07
2018-07-05T12:49:50.053Z,99522.12
2018-07-05T12:52:40.962Z,99522.34
2018-07-05T12:55:30.557Z,99515.66
2018-07-05T12:58:22.200Z,99506.59
2018-07-05T13:01:12.786Z,99506.95
2018-07-05T13:04:02.686Z,99496.00
2018-07-05T13:06:53.167Z,99494.73
2018-07-05T13:12:58.758Z,99499.78
2018-07-05T13:15:52.159Z,99507.55
2018-07-05T13:18:43.490Z,99500.63
2018-07-05T13:21:35.090Z,99505.50
2018-07-05T13:24:30.494Z,99502.58
2018-07-05T13:27:22.171Z,99489.66
2018-07-05T13:30:13.482Z,99491.12
2018-07-05T13:33:02.745Z,99495.66
2018-07-05T13:35:51.584Z,99503.13
2018-07-05T13:38:42.424Z,99515.95
2018-07-05T13:41:34.208Z,99516.86
2018-07-05T13:44:24.465Z,99523.08
2018-07-05T13:47:14.500Z,99526.16
2018-07-05T13:50:05.340Z,99528.83
2018-07-05T13:52:57.567Z,99528.03
2018-07-05T13:55:47.318Z,99535.97
2018-07-05T13:58:39.332Z,99521.33
2018-07-05T14:01:30.416Z,99541.29
2018-07-05T14:04:23.289Z,99543.18
2018-07-05T14:07:12.997Z,99528.20
2018-07-05T14:10:04.757Z,99540.91
2018-07-05T14:12:56.244Z,99545.36
2018-07-05T14:15:46.613Z,99520.05
2018-07-05T14:18:40.274Z,99543.20
2018-07-05T14:21:31.541Z,99556.84
2018-07-05T14:24:20.358Z,99547.48
2018-07-05T14:27:10.354Z,99542.48
2018-07-05T14:30:00.377Z,99542.86
2018-07-05T14:32:50.060Z,99540.07
2018-07-05T14:38:35.351Z,99528.89
2018-07-05T14:41:27.181Z,99539.17
2018-07-05T14:44:19.229Z,99537.95
2018-07-05T14:47:12.209Z,99534.61
2018-07-05T14:50:02.591Z,99537.58
2018-07-05T14:52:53.235Z,99536.80
2018-07-05T14:55:45.581Z,99547.74
2018-07-05T14:58:37.859Z,99544.63
2018-07-05T15:01:27.698Z,99545.83
2018-07-05T15:04:18.788Z,99545.48
2018-07-05T15:07:08.623Z,99545.50
2018-07-05T15:09:58.468Z,99541.40
2018-07-05T15:12:49.750Z,99538.41
2018-07-05T15:15:40.929Z,99536.48
2018-07-05T15:18:29.855Z,99537.95
2018-07-05T15:21:20.962Z,99533.73
2018-07-05T15:24:09.676Z,99532.35
2018-07-05T15:27:00.874Z,99528.46
2018-07-05T15:29:50.675Z,99537.24
2018-07-05T15:32:40.132Z,99532.05
2018-07-05T15:35:30.739Z,99541.53
2018-07-05T15:38:19.329Z,99536.34
2018-07-05T15:41:08.448Z,99536.63
2018-07-05T15:43:56.282Z,99537.89
2018-07-05T15:46:45.478Z,99553.13
2018-07-05T15:49:33.717Z,99546.95
2018-07-05T15:52:22.812Z,99542.80
2018-07-05T15:55:11.361Z,99558.03
2018-07-05T15:58:00.169Z,99547.28
2018-07-05T16:00:52.683Z,99542.94
2018-07-05T16:03:40.556Z,99541.61
2018-07-05T16:06:28.540Z,99536.26
2018-07-05T16:09:18.721Z,99542.80
2018-07-05T16:12:07.058Z,99529.63
2018-07-05T16:14:56.175Z,99535.11
2018-07-05T16:17:48.153Z,99538.38
2018-07-05T16:20:44.796Z,99517.37
2018-07-05T16:23:33.465Z,99536.46
2018-07-05T16:26:23.460Z,99539.17
2018-07-05T16:29:11.428Z,99531.13
2018-07-05T16:32:00.824Z,99528.73
2018-07-05T16:34:48.630Z,99532.29
2018-07-05T16:37:36.900Z,99532.00
2018-07-05T16:40:23.806Z,99527.37
2018-07-05T16:43:13.324Z,99520.13
2018-07-05T16:46:00.255Z,99530.47
2018-07-05T16:48:49.211Z,99536.92
2018-07-05T16:51:39.342Z,99539.39
2018-07-05T16:54:27.304Z,99546.18
2018-07-05T16:57:18.378Z,99542.27
2018-07-05T17:00:07.935Z,99538.34
2018-07-05T17:02:56.458Z,99537.94
2018-07-05T17:05:47.199Z,99545.43
2018-07-05T17:08:40.456Z,99524.67
2018-07-05T17:11:30.583Z,99488.11
2018-07-05T17:14:18.227Z,99552.79
2018-07-05T17:17:07.749Z,99556.77
2018-07-05T17:19:54.807Z,99563.44
2018-07-05T17:22:43.291Z,99562.70
2018-07-05T17:25:32.006Z,99570.64
2018-07-05T17:28:22.966Z,99559.17
2018-07-05T17:31:10.180Z,99569.39
2018-07-05T17:33:59.449Z,99571.64
2018-07-05T17:39:12.229Z,99577.94
2018-07-05T17:41:59.375Z,99577.23
2018-07-05T17:44:46.782Z,99574.05
2018-07-05T17:47:35.441Z,99571.51
2018-07-05T17:50:23.934Z,99585.42
2018-07-05T17:53:11.096Z,99578.98
2018-07-05T17:55:58.557Z,99577.44
2018-07-05T17:58:45.664Z,99581.73
2018-07-05T18:01:34.571Z,99577.78
2018-07-05T18:04:22.719Z,99581.78
2018-07-05T18:07:11.565Z,99590.31
2018-07-05T18:09:58.790Z,99590.33
2018-07-05T18:12:46.401Z,99582.42
2018-07-05T18:15:33.396Z,99593.75
2018-07-05T18:18:21.385Z,99592.14
2018-07-05T18:21:09.980Z,99596.73
2018-07-05T18:24:00.483Z,99592.28
2018-07-05T18:26:49.543Z,99590.05
2018-07-05T18:29:38.599Z,99587.57
2018-07-05T18:32:29.340Z,99588.53
2018-07-05T18:35:20.027Z,99594.10
2018-07-05T18:38:10.491Z,99593.77
2018-07-05T18:41:00.994Z,99581.48
2018-07-05T18:43:51.256Z,99595.16
2018-07-05T18:46:39.712Z,99590.82
2018-07-05T18:49:31.638Z,99602.25
2018-07-05T18:52:20.455Z,99604.43
2018-07-05T18:55:11.979Z,99601.06
2018-07-05T18:58:02.484Z,99590.02
2018-07-05T19:00:52.080Z,99589.78
2018-07-05T19:03:39.290Z,99592.71
2018-07-05T19:06:26.534Z,99595.03
2018-07-05T19:09:13.575Z,99601.86
2018-07-05T19:12:01.627Z,99598.44
2018-07-05T19:14:49.075Z,99598.66
2018-07-05T19:17:37.965Z,99604.75
2018-07-05T19:20:27.663Z,99605.39
2018-07-05T19:23:14.823Z,99608.27
2018-07-05T19:26:05.296Z,99601.39
2018-07-05T19:28:53.423Z,99608.81
2018-07-05T19:31:40.825Z,99607.95
2018-07-05T19:34:35.322Z,99592.30
2018-07-05T19:37:24.139Z,99607.80
2018-07-05T19:40:12.792Z,99613.63
2018-07-05T19:43:00.574Z,99614.14
2018-07-05T19:45:49.031Z,99613.33
2018-07-05T19:48:37.114Z,99613.23
2018-07-05T19:51:25.028Z,99616.31
2018-07-05T19:54:15.565Z,99621.49
2018-07-05T19:57:02.512Z,99626.86
2018-07-05T19:59:50.806Z,99637.91
2018-07-05T20:02:38.184Z,99634.86
2018-07-05T20:05:25.568Z,99631.12
2018-07-05T20:08:14.513Z,99625.17
2018-07-05T20:11:04.342Z,99645.50
2018-07-05T20:13:51.517Z,99642.03
2018-07-05T20:16:39.424Z,99640.88
2018-07-05T20:19:26.532Z,99631.44
2018-07-05T20:22:20.940Z,99645.50
2018-07-05T20:25:09.995Z,99646.88
2018-07-05T20:27:59.023Z,99650.25
2018-07-05T20:30:48.461Z,99640.48
2018-07-05T20:33:35.378Z,99642.46
2018-07-05T20:36:23.377Z,99646.77
2018-07-05T20:39:13.298Z,99648.56
2018-07-05T20:42:00.378Z,99635.53
2018-07-05T20:44:49.688Z,99650.11
2018-07-05T20:47:37.438Z,99647.92
2018-07-05T20:50:25.883Z,99658.78
2018-07-05T20:53:13.903Z,99654.61
2018-07-05T20:56:02.067Z,99650.20
2018-07-05T20:58:50.961Z,99647.52
2018-07-05T21:01:39.476Z,99652.91
2018-07-05T21:04:26.766Z,99650.94
2018-07-05T21:07:14.005Z,99648.86
2018-07-05T21:10:03.029Z,99640.66
2018-07-05T21:12:53.059Z,99656.70
2018-07-05T21:18:19.659Z,99663.83
2018-07-05T21:21:12.534Z,99667.39
2018-07-05T21:24:02.534Z,99666.23
2018-07-05T21:26:50.578Z,99665.42
2018-07-05T21:29:41.311Z,99675.08
2018-07-05T21:32:29.169Z,99672.30
2018-07-05T21:35:17.893Z,99673.62
2018-07-05T21:38:05.587Z,99672.32
2018-07-05T21:40:56.509Z,99673.52
2018-07-05T21:43:46.654Z,99658.83
2018-07-05T21:46:38.466Z,99680.37
2018-07-05T21:49:26.207Z,99679.57
2018-07-05T21:52:18.229Z,99687.61
2018-07-05T21:55:06.435Z,99694.40
2018-07-05T21:57:55.520Z,99687.57
2018-07-05T22:00:43.375Z,99686.63
2018-07-05T22:04:02.342Z,99687.78
2018-07-05T22:07:01.382Z,99694.64
2018-07-05T22:09:48.770Z,99697.96
2018-07-05T22:12:36.579Z,99695.34
2018-07-05T22:15:25.129Z,99695.78
2018-07-05T22:18:17.443Z,99697.19
2018-07-05T22:21:11.213Z,99701.69
2018-07-05T22:24:03.496Z,99705.07
2018-07-05T22:26:52.226Z,99698.86
2018-07-05T22:29:44.590Z,99695.53
2018-07-05T22:32:34.236Z,99699.53
2018-07-05T22:35:26.943Z,99698.69
2018-07-05T22:38:19.182Z,99693.59
2018-07-05T22:41:15.716Z,99742.94
2018-07-05T22:44:05.096Z,99699.45
2018-07-05T22:47:01.061Z,99705.89
2018-07-05T22:49:55.489Z,99705.89
2018-07-05T22:52:44.563Z,99695.28
2018-07-05T22:55:32.443Z,99694.67
2018-07-05T22:58:19.465Z,99692.46
2018-07-05T23:01:08.057Z,99701.39
2018-07-05T23:03:58.641Z,99711.62
2018-07-05T23:06:47.055Z,99699.48
2018-07-05T23:09:35.607Z,99701.25
2018-07-05T23:12:25.575Z,99708.95
2018-07-05T23:15:18.323Z,99704.84
2018-07-05T23:18:05.415Z,99702.12
2018-07-05T23:20:53.129Z,99703.70
2018-07-05T23:23:41.708Z,99707.33
2018-07-05T23:26:31.012Z,99704.31
2018-07-05T23:29:20.894Z,99701.53
2018-07-05T23:32:09.440Z,99704.89
2018-07-05T23:34:56.610Z,99715.69
2018-07-05T23:37:44.283Z,99706.98
2018-07-05T23:40:32.397Z,99704.02
2018-07-05T23:43:23.260Z,99705.94
2018-07-05T23:46:15.353Z,99707.88
2018-07-05T23:49:02.513Z,99711.41
2018-07-05T23:51:51.758Z,99696.86
2018-07-05T23:54:40.207Z,99708.45
2018-07-05T23:57:29.932Z,99705.33
